Time;durP1;ratioP1;P1;durP2;ratioP2;P2;SDS_P1;SDS_P2;PMS_P1;PMS_P2;Temp;Humidity;BMP_temperature;BMP_pressure;BME280_temperature;BME280_humidity;BME280_pressure;Samples;Min_cycle;Max_cycle;Signal;HPM_P1;HPM_P2
2021/04/01 00:00:19;;;;;;;30.50;18.90;;;9.80;99.90;;;;;;5069965;28;20032;-77
2021/04/01 00:02:50;;;;;;;27.27;17.52;;;9.80;99.90;;;;;;5061115;28;20032;-78
2021/04/01 00:05:16;;;;;;;31.60;18.58;;;9.80;99.90;;;;;;5082042;28;20383;-78
2021/04/01 00:07:42;;;;;;;27.83;17.52;;;9.80;99.90;;;;;;5075505;28;20059;-78
2021/04/01 00:10:11;;;;;;;27.60;18.67;;;9.80;99.90;;;;;;5083770;28;20109;-78
2021/04/01 00:12:36;;;;;;;28.50;18.65;;;9.80;99.90;;;;;;5074530;28;20513;-77
2021/04/01 00:15:04;;;;;;;30.98;19.20;;;9.80;99.90;;;;;;5082942;28;20103;-77
2021/04/01 00:17:29;;;;;;;27.17;18.80;;;9.80;99.90;;;;;;5075386;28;20401;-78
2021/04/01 00:19:55;;;;;;;28.10;18.40;;;9.70;99.90;;;;;;5079032;28;20088;-78
2021/04/01 00:22:20;;;;;;;27.27;18.13;;;9.80;99.90;;;;;;5063516;28;20031;-78
2021/04/01 00:24:46;;;;;;;27.05;17.83;;;9.70;99.90;;;;;;5089172;28;20024;-77
2021/04/01 00:27:11;;;;;;;28.90;18.35;;;9.70;99.90;;;;;;5063322;28;20024;-77
2021/04/01 00:29:37;;;;;;;29.10;19.05;;;9.70;99.90;;;;;;5055731;28;20035;-77
2021/04/01 00:32:03;;;;;;;26.27;18.48;;;9.70;99.90;;;;;;5061760;28;20043;-77
2021/04/01 00:34:29;;;;;;;29.30;18.25;;;9.70;99.90;;;;;;5088328;28;20110;-78
2021/04/01 00:36:54;;;;;;;27.05;18.58;;;9.70;99.90;;;;;;5087761;28;20060;-77
2021/04/01 00:39:20;;;;;;;30.30;18.33;;;9.70;99.90;;;;;;5073333;28;20036;-76
2021/04/01 00:41:45;;;;;;;27.60;17.40;;;9.70;99.90;;;;;;5069105;28;20020;-76
2021/04/01 00:44:13;;;;;;;33.30;19.33;;;9.70;99.90;;;;;;5064620;28;20016;-76
2021/04/01 00:46:38;;;;;;;28.65;19.15;;;9.70;99.90;;;;;;5074894;28;20024;-78
2021/04/01 00:49:04;;;;;;;31.10;17.80;;;9.70;99.90;;;;;;5073992;28;20039;-78
2021/04/01 00:51:30;;;;;;;27.00;18.77;;;9.70;99.90;;;;;;5079044;28;20044;-77
2021/04/01 00:53:56;;;;;;;28.75;19.30;;;9.70;99.90;;;;;;5058503;28;20070;-77
2021/04/01 00:56:24;;;;;;;30.30;20.48;;;9.70;99.90;;;;;;5081510;28;20099;-77
2021/04/01 00:58:51;;;;;;;30.38;19.35;;;9.70;99.90;;;;;;5053482;28;20487;-78
2021/04/01 01:01:28;;;;;;;25.92;18.00;;;9.70;99.90;;;;;;5075686;28;20032;-78
2021/04/01 01:03:54;;;;;;;28.63;17.67;;;9.70;99.90;;;;;;5068919;28;20664;-78
2021/04/01 01:06:20;;;;;;;31.90;20.80;;;9.70;99.90;;;;;;5089094;28;20033;-78
2021/04/01 01:08:45;;;;;;;34.05;20.58;;;9.70;99.90;;;;;;5073294;28;20527;-78
2021/04/01 01:11:13;;;;;;;30.42;19.52;;;9.70;99.90;;;;;;5088371;28;20037;-77
2021/04/01 01:13:39;;;;;;;30.27;18.98;;;9.70;99.90;;;;;;5072762;28;20027;-77
2021/04/01 01:16:05;;;;;;;30.13;18.10;;;9.80;99.90;;;;;;5072523;28;20028;-77
2021/04/01 01:18:31;;;;;;;32.33;19.27;;;9.80;99.90;;;;;;5091041;28;20501;-77
2021/04/01 01:20:58;;;;;;;34.88;20.50;;;9.80;99.90;;;;;;5067599;28;20029;-78
2021/04/01 01:23:26;;;;;;;30.10;20.30;;;9.80;99.90;;;;;;5063307;28;20059;-77
2021/04/01 01:25:53;;;;;;;29.10;19.20;;;9.80;99.90;;;;;;5063924;28;20036;-77
2021/04/01 01:28:19;;;;;;;28.55;18.33;;;9.80;99.90;;;;;;5066851;28;20424;-78
2021/04/01 01:30:45;;;;;;;30.02;19.52;;;9.80;99.90;;;;;;5072383;28;20030;-78
2021/04/01 01:33:16;;;;;;;27.98;18.17;;;9.80;99.90;;;;;;5066239;28;20024;-77
2021/04/01 01:35:42;;;;;;;26.27;18.75;;;9.80;99.90;;;;;;5092785;28;20016;-78
2021/04/01 01:38:09;;;;;;;31.08;19.55;;;9.80;99.90;;;;;;5074419;28;20077;-78
2021/04/01 01:40:36;;;;;;;32.45;21.25;;;9.80;99.90;;;;;;5073643;28;20115;-78
2021/04/01 01:43:08;;;;;;;34.42;22.02;;;9.80;99.90;;;;;;5093013;28;20024;-77
2021/04/01 01:45:34;;;;;;;33.53;19.92;;;9.70;99.90;;;;;;5063994;28;20027;-77
2021/04/01 01:48:00;;;;;;;37.88;22.38;;;9.80;99.90;;;;;;5060597;28;20112;-78
2021/04/01 01:50:29;;;;;;;36.78;23.50;;;9.80;99.90;;;;;;5076932;28;20063;-77
2021/04/01 01:52:55;;;;;;;36.60;22.92;;;9.80;99.90;;;;;;5063000;28;20085;-78
2021/04/01 01:55:22;;;;;;;39.10;23.65;;;9.90;99.90;;;;;;5067778;28;20036;-78
2021/04/01 01:57:48;;;;;;;40.03;23.30;;;9.90;99.90;;;;;;5061620;28;20055;-76
2021/04/01 02:00:42;;;;;;;34.25;22.33;;;9.90;99.90;;;;;;5064785;28;20135;-78
2021/04/01 02:03:08;;;;;;;40.67;24.88;;;9.90;99.90;;;;;;5077261;28;20032;-76
2021/04/01 02:05:36;;;;;;;41.45;25.42;;;9.90;99.90;;;;;;5062924;28;20098;-77
2021/04/01 02:08:02;;;;;;;42.03;25.65;;;9.90;99.90;;;;;;5083622;28;20020;-77
2021/04/01 02:10:39;;;;;;;40.53;25.73;;;9.90;99.90;;;;;;5070563;28;20448;-77
2021/04/01 02:13:06;;;;;;;39.13;24.88;;;9.90;99.90;;;;;;5084821;28;20024;-77
2021/04/01 02:15:37;;;;;;;40.47;26.08;;;9.90;99.90;;;;;;5093565;28;20036;-77
2021/04/01 02:18:11;;;;;;;41.60;26.80;;;9.90;99.90;;;;;;5074865;28;20065;-77
2021/04/01 02:20:43;;;;;;;39.47;25.15;;;9.90;99.90;;;;;;5082823;28;20075;-77
2021/04/01 02:23:13;;;;;;;39.50;24.88;;;9.90;99.90;;;;;;5057104;28;20077;-77
2021/04/01 02:25:40;;;;;;;39.80;24.55;;;9.90;99.90;;;;;;5078337;28;20032;-77
2021/04/01 02:28:09;;;;;;;39.03;24.23;;;9.90;99.90;;;;;;5078633;28;20028;-78
2021/04/01 02:30:36;;;;;;;40.17;23.10;;;9.90;99.90;;;;;;5075370;28;20016;-77
2021/04/01 02:33:03;;;;;;;35.45;23.85;;;10.00;99.90;;;;;;5057336;28;20021;-77
2021/04/01 02:35:28;;;;;;;35.30;23.92;;;10.00;99.90;;;;;;5086146;28;20036;-77
2021/04/01 02:37:54;;;;;;;43.40;25.85;;;10.00;99.90;;;;;;5079262;28;20032;-78
2021/04/01 02:40:20;;;;;;;39.90;23.98;;;10.00;99.90;;;;;;5059975;28;20054;-77
2021/04/01 02:42:46;;;;;;;41.05;25.75;;;9.90;99.90;;;;;;5063324;28;20032;-77
2021/04/01 02:45:12;;;;;;;45.65;30.20;;;9.90;99.90;;;;;;5073532;28;20036;-77
2021/04/01 02:47:38;;;;;;;45.88;28.42;;;10.00;99.90;;;;;;5072805;28;20089;-77
2021/04/01 02:50:05;;;;;;;44.30;28.10;;;9.90;99.90;;;;;;5090970;28;20032;-77
2021/04/01 02:52:31;;;;;;;42.95;26.95;;;10.00;99.90;;;;;;5087795;28;20097;-76
2021/04/01 02:54:57;;;;;;;47.97;29.63;;;10.00;99.90;;;;;;5060493;28;20021;-77
2021/04/01 02:57:22;;;;;;;46.30;30.48;;;10.00;99.90;;;;;;5060553;28;20039;-76
2021/04/01 02:59:48;;;;;;;44.58;29.60;;;10.00;99.90;;;;;;5057710;28;20024;-77
2021/04/01 03:02:16;;;;;;;49.00;29.40;;;10.00;99.90;;;;;;5087936;28;20500;-77
2021/04/01 03:04:41;;;;;;;48.30;30.23;;;10.00;99.90;;;;;;5060954;28;20072;-77
2021/04/01 03:07:07;;;;;;;46.15;30.33;;;10.00;99.90;;;;;;5071718;28;20080;-77
2021/04/01 03:09:34;;;;;;;52.28;32.33;;;10.00;99.90;;;;;;5083891;28;20027;-78
2021/04/01 03:12:00;;;;;;;52.17;32.15;;;10.00;99.90;;;;;;5078430;28;20050;-77
2021/04/01 03:14:25;;;;;;;50.10;31.65;;;10.00;99.90;;;;;;5077435;28;20032;-77
2021/04/01 03:16:52;;;;;;;50.17;32.45;;;10.00;99.90;;;;;;5059367;28;20036;-77
2021/04/01 03:19:17;;;;;;;51.35;32.17;;;10.10;99.90;;;;;;5065856;28;20024;-77
2021/04/01 03:21:43;;;;;;;55.72;32.10;;;10.10;99.90;;;;;;5073265;28;20031;-78
2021/04/01 03:24:10;;;;;;;43.85;31.23;;;10.10;99.90;;;;;;5067859;28;20062;-78
2021/04/01 03:26:35;;;;;;;48.75;30.35;;;10.20;99.90;;;;;;5086457;28;20111;-77
2021/04/01 03:29:01;;;;;;;51.70;32.00;;;10.20;99.90;;;;;;5072538;28;20051;-76
2021/04/01 03:31:27;;;;;;;47.00;32.97;;;10.20;99.90;;;;;;5090598;28;20092;-77
2021/04/01 03:33:52;;;;;;;47.42;31.63;;;10.20;99.90;;;;;;5067637;28;20032;-77
2021/04/01 03:36:18;;;;;;;45.80;30.23;;;10.10;99.90;;;;;;5065460;28;20020;-78
2021/04/01 03:38:46;;;;;;;41.95;29.65;;;10.10;99.90;;;;;;5075139;28;20053;-77
2021/04/01 03:41:11;;;;;;;46.85;31.02;;;10.10;99.90;;;;;;5072569;28;20052;-77
2021/04/01 03:43:37;;;;;;;53.00;31.77;;;10.00;99.90;;;;;;5070235;28;20390;-76
2021/04/01 03:46:03;;;;;;;49.53;33.05;;;10.00;99.90;;;;;;5068245;28;20052;-78
2021/04/01 03:48:29;;;;;;;48.33;31.90;;;10.10;99.90;;;;;;5060947;28;20090;-77
2021/04/01 03:50:54;;;;;;;51.35;33.35;;;10.20;99.90;;;;;;5073417;28;20039;-78
2021/04/01 03:53:20;;;;;;;50.67;31.98;;;10.30;99.90;;;;;;5076709;28;20024;-77
2021/04/01 03:55:46;;;;;;;53.28;32.42;;;10.40;99.90;;;;;;5072150;28;20039;-78
2021/04/01 04:01:00;;;;;;;50.65;32.45;;;10.50;99.90;;;;;;5086995;28;20421;-77
2021/04/01 04:08:39;;;;;;;56.05;33.58;;;10.40;99.90;;;;;;5088787;28;20020;-77
2021/04/01 04:11:13;;;;;;;47.33;31.88;;;10.40;99.90;;;;;;5066878;28;20099;-77
2021/04/01 04:13:59;;;;;;;47.75;29.27;;;10.30;99.90;;;;;;5092360;28;20024;-77
2021/04/01 04:16:24;;;;;;;49.60;31.73;;;10.30;99.90;;;;;;5070709;28;20343;-77
2021/04/01 04:18:50;;;;;;;51.80;33.03;;;10.20;99.90;;;;;;5077080;28;20028;-77
2021/04/01 04:21:17;;;;;;;49.35;32.47;;;10.30;99.90;;;;;;5077561;28;20031;-77
2021/04/01 04:23:46;;;;;;;49.00;31.42;;;10.20;99.90;;;;;;5068303;28;20031;-77
2021/04/01 04:26:12;;;;;;;49.60;31.90;;;10.20;99.90;;;;;;5063542;28;20059;-77
2021/04/01 04:28:39;;;;;;;45.72;31.73;;;10.20;99.90;;;;;;5073065;28;20012;-77
2021/04/01 04:31:04;;;;;;;55.10;33.08;;;10.10;99.90;;;;;;5059381;28;20035;-77
2021/04/01 04:33:31;;;;;;;52.28;33.40;;;10.10;99.90;;;;;;5061567;28;20024;-77
2021/04/01 04:35:57;;;;;;;54.53;32.97;;;10.20;99.90;;;;;;5070835;28;20060;-78
2021/04/01 04:38:24;;;;;;;51.72;33.88;;;10.10;99.90;;;;;;5076656;28;20107;-78
2021/04/01 04:40:54;;;;;;;52.95;33.38;;;10.10;99.90;;;;;;5081483;28;20016;-77
2021/04/01 04:43:20;;;;;;;49.58;32.55;;;10.10;99.90;;;;;;5065331;28;20043;-77
2021/04/01 04:45:45;;;;;;;53.92;32.92;;;10.10;99.90;;;;;;5077785;28;20044;-78
2021/04/01 04:48:11;;;;;;;52.95;34.15;;;10.10;99.90;;;;;;5057244;28;20024;-77
2021/04/01 04:50:37;;;;;;;56.58;33.80;;;10.10;99.90;;;;;;5089142;22;20120;-59
2021/04/01 04:53:02;;;;;;;54.63;36.10;;;10.00;99.90;;;;;;5079328;28;20424;-58
2021/04/01 04:55:28;;;;;;;56.15;34.63;;;10.00;99.90;;;;;;5084819;28;20021;-58
2021/04/01 05:01:12;;;;;;;53.00;34.03;;;10.00;99.90;;;;;;5078686;28;20020;-58
2021/04/01 05:05:51;;;;;;;57.60;34.15;;;10.00;99.90;;;;;;5078158;28;20043;-57
2021/04/01 05:08:17;;;;;;;56.00;34.60;;;10.00;99.90;;;;;;5075809;28;20024;-58
2021/04/01 05:10:43;;;;;;;55.30;34.10;;;10.00;99.90;;;;;;5069856;28;20073;-58
2021/04/01 05:13:10;;;;;;;55.17;34.88;;;10.00;99.90;;;;;;5063700;28;20024;-58
2021/04/01 05:15:43;;;;;;;62.40;35.60;;;9.90;99.90;;;;;;5061417;28;20021;-56
2021/04/01 05:18:15;;;;;;;62.65;34.70;;;9.90;99.90;;;;;;5064771;28;20021;-57
2021/04/01 05:20:42;;;;;;;59.80;34.90;;;9.90;99.90;;;;;;5068908;28;20040;-59
2021/04/01 05:23:16;;;;;;;60.30;35.65;;;9.90;99.90;;;;;;5070421;28;20025;-58
2021/04/01 05:25:42;;;;;;;58.30;34.28;;;9.90;99.90;;;;;;5072394;28;20459;-59
2021/04/01 05:28:20;;;;;;;54.72;34.08;;;9.90;99.90;;;;;;5079956;28;20067;-59
2021/04/01 05:30:45;;;;;;;51.33;31.45;;;9.80;99.90;;;;;;5081505;28;20027;-58
2021/04/01 05:33:12;;;;;;;52.65;33.00;;;9.90;99.90;;;;;;5088358;28;20067;-58
2021/04/01 05:35:39;;;;;;;50.72;32.35;;;9.80;99.90;;;;;;5038894;28;20507;-58
2021/04/01 05:38:05;;;;;;;58.13;33.58;;;9.80;99.90;;;;;;5071495;28;20016;-58
2021/04/01 05:40:31;;;;;;;57.28;34.65;;;9.80;99.90;;;;;;5086733;28;20500;-58
2021/04/01 05:42:57;;;;;;;57.60;35.05;;;9.80;99.90;;;;;;5084636;28;20048;-59
2021/04/01 05:45:47;;;;;;;58.97;33.38;;;9.80;99.90;;;;;;5087159;28;20012;-59
2021/04/01 05:48:23;;;;;;;52.60;32.03;;;9.80;99.90;;;;;;5077106;28;20052;-58
2021/04/01 06:01:44;;;;;;;55.53;33.78;;;10.00;99.90;;;;;;5085758;28;20036;-58
2021/04/01 06:04:32;;;;;;;57.38;34.38;;;10.00;99.90;;;;;;5083231;28;20107;-58
2021/04/01 06:07:07;;;;;;;55.70;34.55;;;10.00;99.90;;;;;;5082220;28;20021;-56
2021/04/01 06:09:48;;;;;;;61.40;35.03;;;10.00;99.90;;;;;;5088888;28;20048;-58
2021/04/01 06:12:13;;;;;;;60.25;35.97;;;10.00;99.90;;;;;;5069417;28;20024;-58
2021/04/01 06:14:54;;;;;;;57.88;37.03;;;10.00;99.90;;;;;;5086098;28;20389;-58
2021/04/01 06:17:24;;;;;;;55.15;35.22;;;10.00;99.90;;;;;;5083826;28;20494;-55
2021/04/01 06:19:54;;;;;;;63.42;36.00;;;10.00;99.90;;;;;;5079292;28;20060;-57
2021/04/01 06:22:21;;;;;;;60.75;35.20;;;10.00;99.90;;;;;;5088941;28;20032;-58
2021/04/01 06:24:49;;;;;;;60.47;36.72;;;10.00;99.90;;;;;;5081891;28;20008;-58
2021/04/01 06:27:24;;;;;;;58.30;36.30;;;10.00;99.90;;;;;;5084284;28;20020;-59
2021/04/01 06:32:41;;;;;;;62.38;36.28;;;10.00;99.90;;;;;;5079543;28;20020;-59
2021/04/01 06:40:54;;;;;;;59.80;35.47;;;10.00;99.90;;;;;;5060689;28;20422;-58
2021/04/01 06:43:21;;;;;;;59.05;36.08;;;9.90;99.90;;;;;;5052102;28;20024;-58
2021/04/01 06:46:01;;;;;;;53.75;33.40;;;9.90;99.90;;;;;;5052573;28;20390;-59
2021/04/01 06:49:23;;;;;;;62.20;36.22;;;9.90;99.90;;;;;;5070005;28;20021;-56
2021/04/01 06:51:36;;;;;;;56.30;34.00;;;9.90;99.90;;;;;;5063806;28;20048;-57
2021/04/01 06:54:16;;;;;;;59.25;36.60;;;9.90;99.90;;;;;;5057622;28;20020;-58
2021/04/01 06:59:46;;;;;;;60.47;34.30;;;9.90;99.90;;;;;;5070251;28;20020;-58
2021/04/01 07:04:38;;;;;;;60.40;36.85;;;9.90;99.90;;;;;;5069722;28;20031;-57
2021/04/01 07:07:06;;;;;;;65.43;38.42;;;9.90;99.90;;;;;;5066613;28;20025;-59
2021/04/01 07:12:15;;;;;;;67.07;38.58;;;10.00;99.90;;;;;;5069647;28;20017;-58
2021/04/01 07:14:44;;;;;;;64.13;35.72;;;10.00;99.90;;;;;;5069575;28;20027;-59
2021/04/01 07:17:24;;;;;;;63.20;35.33;;;10.10;99.90;;;;;;5069522;28;20032;-57
2021/04/01 07:20:16;;;;;;;57.67;37.20;;;10.10;99.90;;;;;;5053826;28;20034;-58
2021/04/01 07:31:53;;;;;;;60.00;35.80;;;10.40;99.90;;;;;;5054854;28;20055;-59
2021/04/01 07:48:04;;;;;;;56.42;35.25;;;10.70;99.90;;;;;;5078392;28;20032;-57
2021/04/01 07:50:42;;;;;;;61.38;36.92;;;10.70;99.90;;;;;;5051269;28;20035;-58
2021/04/01 07:53:12;;;;;;;65.13;38.70;;;10.70;99.90;;;;;;5076022;28;20371;-54
2021/04/01 07:56:05;;;;;;;65.07;40.15;;;10.70;99.90;;;;;;5064302;28;20021;-56
2021/04/01 08:03:57;;;;;;;61.75;38.45;;;10.50;99.90;;;;;;5069740;28;20047;-59
2021/04/01 08:06:27;;;;;;;64.72;40.25;;;10.40;99.90;;;;;;5075107;28;20017;-58
2021/04/01 08:09:06;;;;;;;67.38;40.25;;;10.50;99.90;;;;;;5078011;28;20021;-55
2021/04/01 08:11:42;;;;;;;64.50;38.17;;;10.60;99.90;;;;;;5070998;28;20036;-58
2021/04/01 08:14:19;;;;;;;60.55;37.08;;;10.60;99.90;;;;;;5069505;28;20034;-56
2021/04/01 08:16:53;;;;;;;57.20;35.33;;;10.70;99.90;;;;;;5063434;28;20024;-58
2021/04/01 08:19:24;;;;;;;51.90;32.17;;;10.80;99.90;;;;;;5069471;28;20036;-57
2021/04/01 08:21:52;;;;;;;49.65;30.98;;;10.90;99.90;;;;;;5045361;28;20502;-58
2021/04/01 08:24:32;;;;;;;43.50;27.95;;;10.90;99.90;;;;;;5079791;28;20020;-57
2021/04/01 08:35:16;;;;;;;39.75;24.15;;;11.10;99.90;;;;;;5015886;28;20043;-57
2021/04/01 08:37:55;;;;;;;42.15;24.95;;;11.00;99.90;;;;;;5061738;28;20021;-58
2021/04/01 08:40:21;;;;;;;41.40;26.30;;;10.90;99.90;;;;;;5058225;28;20111;-59
2021/04/01 08:42:56;;;;;;;40.92;25.02;;;10.80;99.90;;;;;;5068191;28;20544;-58
2021/04/01 08:45:48;;;;;;;37.38;24.55;;;10.90;99.90;;;;;;5079745;28;20106;-54
2021/04/01 08:48:24;;;;;;;32.15;21.33;;;11.00;99.90;;;;;;5074110;28;20070;-58
2021/04/01 08:51:08;;;;;;;33.60;20.23;;;11.20;99.90;;;;;;5068530;28;20034;-56
2021/04/01 08:53:49;;;;;;;28.10;17.88;;;11.20;99.90;;;;;;5074065;28;20017;-57
2021/04/01 08:56:28;;;;;;;31.10;18.73;;;11.20;99.90;;;;;;5079003;28;20022;-57
2021/04/01 08:59:00;;;;;;;27.70;17.77;;;11.30;99.90;;;;;;5074368;28;20019;-57
2021/04/01 09:01:36;;;;;;;23.67;14.85;;;11.50;99.90;;;;;;5086750;28;20110;-57
2021/04/01 09:04:02;;;;;;;22.45;15.60;;;11.50;99.90;;;;;;5088401;28;20028;-58
2021/04/01 09:06:34;;;;;;;24.00;13.50;;;11.60;99.90;;;;;;5088498;28;20024;-57
2021/04/01 09:09:14;;;;;;;24.25;13.85;;;11.70;99.90;;;;;;5088524;28;20024;-56
2021/04/01 09:14:18;;;;;;;23.95;14.13;;;12.00;99.90;;;;;;5083443;28;20016;-58
2021/04/01 09:16:52;;;;;;;24.13;13.70;;;12.20;99.90;;;;;;5055423;28;20449;-55
2021/04/01 09:19:26;;;;;;;20.67;13.05;;;12.20;99.90;;;;;;5070217;28;20051;-57
2021/04/01 09:21:53;;;;;;;15.82;10.60;;;12.30;99.90;;;;;;5080330;28;20023;-55
2021/04/01 09:24:26;;;;;;;21.55;12.25;;;12.60;99.90;;;;;;5088485;28;20020;-57
2021/04/01 09:26:53;;;;;;;17.70;10.75;;;12.80;99.90;;;;;;5120431;22;20033;-76
2021/04/01 09:29:19;;;;;;;18.83;9.57;;;13.00;99.90;;;;;;5089151;28;20081;-77
2021/04/01 09:31:47;;;;;;;16.80;10.75;;;12.90;99.90;;;;;;5042342;28;20021;-76
2021/04/01 09:34:17;;;;;;;14.27;9.05;;;12.90;99.90;;;;;;5065324;28;20044;-75
2021/04/01 09:36:44;;;;;;;14.55;9.50;;;12.90;99.90;;;;;;5054277;28;20054;-77
2021/04/01 09:39:43;;;;;;;13.52;8.40;;;12.80;99.90;;;;;;5040559;28;20025;-77
2021/04/01 09:42:15;;;;;;;14.05;9.50;;;12.40;99.90;;;;;;5066615;28;20028;-77
2021/04/01 09:44:55;;;;;;;11.50;8.40;;;12.10;99.90;;;;;;5043050;28;20029;-77
2021/04/01 09:47:36;;;;;;;12.90;8.57;;;11.90;99.90;;;;;;5057214;28;20120;-76
2021/04/01 09:50:04;;;;;;;12.75;7.68;;;11.80;99.90;;;;;;5061068;28;20100;-76
2021/04/01 09:52:31;;;;;;;12.23;7.57;;;11.60;99.90;;;;;;5049035;28;20023;-77
2021/04/01 09:55:03;;;;;;;12.57;7.10;;;11.50;99.90;;;;;;5050333;28;20020;-76
2021/04/01 09:57:45;;;;;;;14.45;7.53;;;11.50;99.90;;;;;;5064722;28;20029;-75
2021/04/01 10:00:48;;;;;;;12.32;7.38;;;11.20;99.90;;;;;;5059646;28;20049;-76
2021/04/01 10:03:23;;;;;;;11.52;7.28;;;11.00;99.90;;;;;;5048800;28;20451;-77
2021/04/01 10:05:51;;;;;;;12.55;6.88;;;11.00;99.90;;;;;;5065004;28;20427;-77
2021/04/01 10:08:28;;;;;;;12.25;6.60;;;10.70;99.90;;;;;;5046794;28;20029;-76
2021/04/01 10:10:58;;;;;;;10.73;5.63;;;10.50;99.90;;;;;;5066551;28;20090;-76
2021/04/01 10:13:25;;;;;;;11.27;6.15;;;10.30;99.90;;;;;;5069678;28;20499;-77
2021/04/01 10:15:53;;;;;;;10.45;5.88;;;10.10;99.90;;;;;;5069994;28;20032;-77
2021/04/01 10:18:36;;;;;;;9.18;6.15;;;10.00;99.90;;;;;;5057216;28;20107;-77
2021/04/01 10:21:03;;;;;;;7.90;6.05;;;9.90;99.90;;;;;;5071324;28;20021;-78
2021/04/01 10:23:41;;;;;;;10.00;6.43;;;9.90;99.90;;;;;;5052973;28;20029;-79
2021/04/01 10:26:43;;;;;;;10.93;6.18;;;9.90;99.90;;;;;;5053242;28;20398;-77
2021/04/01 10:29:38;;;;;;;9.43;5.03;;;9.80;99.90;;;;;;5061167;28;20064;-78
2021/04/01 10:32:03;;;;;;;10.15;5.20;;;9.60;99.90;;;;;;5067610;28;20029;-78
2021/04/01 10:34:44;;;;;;;9.65;4.68;;;9.50;99.90;;;;;;5068683;28;20055;-76
2021/04/01 10:37:13;;;;;;;5.40;3.88;;;9.50;99.90;;;;;;5064237;28;20025;-78
2021/04/01 10:39:40;;;;;;;7.53;3.65;;;9.70;99.90;;;;;;5066489;28;20070;-78
2021/04/01 10:42:11;;;;;;;7.13;4.32;;;9.90;99.90;;;;;;5050241;28;20028;-77
2021/04/01 10:44:41;;;;;;;5.25;3.25;;;9.90;99.90;;;;;;5065016;28;20032;-78
2021/04/01 10:47:14;;;;;;;6.47;3.67;;;9.90;99.90;;;;;;5066057;28;20032;-78
2021/04/01 10:49:40;;;;;;;6.70;4.20;;;9.80;99.90;;;;;;5053527;28;20037;-78
2021/04/01 10:52:10;;;;;;;4.93;3.50;;;9.70;99.90;;;;;;5070995;28;20101;-77
2021/04/01 10:54:38;;;;;;;5.40;3.03;;;9.70;99.90;;;;;;5067626;28;20044;-77
2021/04/01 10:57:05;;;;;;;8.20;3.95;;;9.70;99.90;;;;;;5060312;28;20525;-77
2021/04/01 10:59:43;;;;;;;5.13;3.88;;;9.80;99.90;;;;;;5044091;28;20028;-77
2021/04/01 11:02:17;;;;;;;5.32;4.13;;;9.70;99.90;;;;;;5068373;28;20035;-77
2021/04/01 11:04:46;;;;;;;5.00;3.63;;;9.70;99.90;;;;;;5049922;28;20415;-77
2021/04/01 11:07:13;;;;;;;5.72;3.95;;;9.60;99.90;;;;;;5037355;28;20016;-77
2021/04/01 11:09:49;;;;;;;7.25;4.00;;;9.60;99.90;;;;;;5059063;28;20027;-78
2021/04/01 11:12:17;;;;;;;;;;;9.60;99.90;;;;;;5075611;28;20048;-77
2021/04/01 11:14:49;;;;;;;5.90;3.53;;;9.60;99.90;;;;;;5073717;28;19995;-79
2021/04/01 11:17:24;;;;;;;7.15;4.13;;;9.80;99.90;;;;;;5057088;28;20017;-78
2021/04/01 11:19:53;;;;;;;8.82;3.33;;;10.00;99.90;;;;;;5074127;28;20035;-78
2021/04/01 11:22:20;;;;;;;6.35;3.80;;;10.00;99.90;;;;;;5074048;28;20047;-79
2021/04/01 11:24:46;;;;;;;4.90;3.53;;;9.90;99.90;;;;;;5055701;28;20084;-79
2021/04/01 11:27:20;;;;;;;6.03;3.97;;;10.10;99.90;;;;;;5056491;28;20305;-78
2021/04/01 11:29:54;;;;;;;3.17;2.80;;;10.10;99.90;;;;;;5055088;28;20036;-78
2021/04/01 11:32:23;;;;;;;6.95;3.78;;;10.40;99.90;;;;;;5061134;28;20088;-77
2021/04/01 11:34:51;;;;;;;4.40;3.58;;;10.50;99.90;;;;;;5057221;28;20051;-76
2021/04/01 11:37:20;;;;;;;4.28;2.95;;;10.60;99.90;;;;;;5040456;28;20070;-79
2021/04/01 11:39:47;;;;;;;6.55;2.95;;;10.50;99.90;;;;;;5054737;28;20047;-77
2021/04/01 11:42:17;;;;;;;5.40;2.38;;;10.30;99.90;;;;;;5053582;28;20518;-77
2021/04/01 11:44:44;;;;;;;2.90;2.42;;;10.30;99.90;;;;;;5058236;28;20414;-77
2021/04/01 11:47:13;;;;;;;3.65;2.15;;;10.40;99.90;;;;;;5050220;28;20021;-76
2021/04/01 11:49:38;;;;;;;3.08;1.77;;;10.60;99.90;;;;;;5062132;28;20107;-78
2021/04/01 11:52:08;;;;;;;2.78;1.95;;;10.80;99.90;;;;;;5069233;28;20101;-77
2021/04/01 11:54:33;;;;;;;3.25;2.05;;;10.90;99.90;;;;;;5044682;28;20116;-78
2021/04/01 11:56:59;;;;;;;2.10;1.90;;;11.00;99.90;;;;;;5044801;28;20044;-78
2021/04/01 11:59:31;;;;;;;2.90;1.70;;;11.20;99.90;;;;;;5051431;28;20033;-78
2021/04/01 12:02:09;;;;;;;3.70;1.85;;;11.40;99.90;;;;;;5059086;28;20332;-78
2021/04/01 12:04:37;;;;;;;2.13;1.92;;;11.70;99.90;;;;;;5047267;28;20025;-78
2021/04/01 12:07:05;;;;;;;1.60;1.50;;;11.70;99.90;;;;;;5070240;28;20031;-78
2021/04/01 12:09:30;;;;;;;1.40;1.30;;;11.50;99.90;;;;;;5043582;28;20028;-76
2021/04/01 12:11:56;;;;;;;2.03;1.63;;;11.30;99.90;;;;;;5048836;28;20025;-77
2021/04/01 12:14:36;;;;;;;1.50;1.40;;;11.10;99.90;;;;;;5060083;28;20024;-78
2021/04/01 12:17:03;;;;;;;2.38;1.65;;;10.90;99.90;;;;;;5049295;28;20016;-77
2021/04/01 12:19:29;;;;;;;1.88;1.38;;;10.90;99.90;;;;;;5049576;28;20111;-78
2021/04/01 12:21:55;;;;;;;2.38;1.83;;;10.90;99.90;;;;;;5048356;28;20050;-77
2021/04/01 12:24:21;;;;;;;3.40;1.73;;;10.70;99.90;;;;;;5065193;28;20016;-77
2021/04/01 12:26:50;;;;;;;1.63;1.40;;;10.60;99.90;;;;;;5047840;28;20024;-78
2021/04/01 12:29:17;;;;;;;1.90;1.60;;;10.40;99.90;;;;;;5051042;28;20035;-78
2021/04/01 12:31:47;;;;;;;1.63;1.50;;;10.20;99.90;;;;;;5052093;28;20017;-78
2021/04/01 12:34:28;;;;;;;2.25;1.85;;;10.10;99.90;;;;;;5065660;28;20096;-76
2021/04/01 12:36:55;;;;;;;2.17;1.55;;;10.10;99.90;;;;;;5057178;28;20110;-78
2021/04/01 12:39:32;;;;;;;2.53;1.40;;;10.10;99.90;;;;;;5065725;28;20025;-78
2021/04/01 12:41:58;;;;;;;2.00;1.50;;;10.00;99.90;;;;;;5062186;28;20017;-78
2021/04/01 12:44:38;;;;;;;1.60;1.50;;;10.00;99.90;;;;;;5049972;28;20511;-78
2021/04/01 12:47:04;;;;;;;1.88;1.48;;;10.00;99.90;;;;;;5063903;28;20096;-77
2021/04/01 12:49:37;;;;;;;2.30;1.58;;;10.00;99.90;;;;;;5049624;28;20626;-76
2021/04/01 12:52:07;;;;;;;1.92;1.77;;;9.80;99.90;;;;;;5053684;28;20146;-78
2021/04/01 12:54:43;;;;;;;3.25;2.20;;;9.70;99.90;;;;;;5065546;28;20036;-77
2021/04/01 12:57:18;;;;;;;1.88;1.77;;;9.50;99.90;;;;;;5050620;28;20029;-78
2021/04/01 12:59:47;;;;;;;5.00;1.90;;;9.30;99.90;;;;;;5048600;28;20025;-77
2021/04/01 13:02:15;;;;;;;2.25;1.60;;;9.20;99.90;;;;;;5049898;28;20679;-78
2021/04/01 13:04:43;;;;;;;3.17;1.80;;;9.20;99.90;;;;;;5049915;28;20047;-78
2021/04/01 13:12:21;;;;;;;2.58;1.88;;;8.80;99.90;;;;;;5064140;28;20023;-79
2021/04/01 13:14:47;;;;;;;2.75;1.10;;;8.70;99.90;;;;;;5054136;28;20094;-78
2021/04/01 13:17:13;;;;;;;0.98;0.98;;;8.60;99.90;;;;;;5053113;28;20016;-78
2021/04/01 13:19:39;;;;;;;3.08;1.10;;;8.50;99.90;;;;;;5052598;28;20033;-79
2021/04/01 13:22:22;;;;;;;4.45;1.48;;;8.50;99.90;;;;;;5054329;28;20024;-78
2021/04/01 13:27:16;;;;;;;3.50;1.10;;;8.60;99.90;;;;;;5063251;28;20032;-79
2021/04/01 13:29:58;;;;;;;1.38;1.00;;;8.60;99.90;;;;;;5070540;28;20055;-79
2021/04/01 13:32:41;;;;;;;1.15;0.80;;;8.70;99.90;;;;;;5050681;28;20017;-80
2021/04/01 13:37:39;;;;;;;3.15;1.23;;;8.80;99.90;;;;;;5061914;28;20067;-79
2021/04/01 13:40:13;;;;;;;4.10;1.15;;;8.80;99.90;;;;;;5051634;28;20017;-79
2021/04/01 13:42:42;;;;;;;2.25;1.00;;;8.80;99.90;;;;;;5053903;28;20112;-79
2021/04/01 13:45:12;;;;;;;1.63;1.13;;;8.80;99.90;;;;;;5054766;28;20088;-79
2021/04/01 13:47:43;;;;;;;2.13;1.00;;;8.80;99.90;;;;;;5079966;28;20029;-79
2021/04/01 13:50:20;;;;;;;3.42;1.17;;;8.70;99.90;;;;;;5055402;28;20581;-79
2021/04/01 13:52:54;;;;;;;1.50;1.38;;;8.70;99.90;;;;;;5056235;28;20070;-79
2021/04/01 13:55:30;;;;;;;3.40;1.15;;;8.70;99.90;;;;;;5073525;28;20024;-78
2021/04/01 14:01:23;;;;;;;3.75;1.52;;;8.60;99.90;;;;;;5055018;28;20031;-80
2021/04/01 14:09:25;;;;;;;6.73;1.43;;;8.50;99.90;;;;;;5070192;28;20075;-78
2021/04/01 14:11:51;;;;;;;1.80;1.00;;;8.50;99.90;;;;;;5050657;28;20175;-79
2021/04/01 14:14:16;;;;;;;5.57;1.38;;;8.50;99.90;;;;;;5044400;28;20492;-78
2021/04/01 14:16:42;;;;;;;5.32;1.30;;;8.50;99.90;;;;;;5040546;28;20124;-78
2021/04/01 14:19:08;;;;;;;3.20;1.40;;;8.50;99.90;;;;;;5066845;28;20032;-79
2021/04/01 14:21:34;;;;;;;3.40;1.40;;;8.50;99.90;;;;;;5049759;28;20445;-78
2021/04/01 14:24:06;;;;;;;2.42;1.17;;;8.60;99.90;;;;;;5054015;28;20060;-78
2021/04/01 14:29:07;;;;;;;1.67;0.80;;;8.60;99.90;;;;;;5070129;28;20038;-78
2021/04/01 14:31:34;;;;;;;2.15;1.40;;;8.70;99.90;;;;;;5066706;28;20025;-80
2021/04/01 14:34:03;;;;;;;2.20;0.90;;;8.70;99.90;;;;;;5056658;28;20024;-79